Time;durP1;ratioP1;P1;durP2;ratioP2;P2;SDS_P1;SDS_P2;PMS_P1;PMS_P2;Temp;Humidity;BMP_temperature;BMP_pressure;BME280_temperature;BME280_humidity;BME280_pressure;Samples;Min_cycle;Max_cycle;Signal;HPM_P1;HPM_P2
2021/01/20 00:01:47;;;;;;;2.93;2.65;;;;;;;17.68;44.14;99936.41;;;;-47
2021/01/20 00:04:47;;;;;;;3.03;2.72;;;;;;;17.66;44.07;99930.37;;;;-46
2021/01/20 00:07:47;;;;;;;2.99;2.59;;;;;;;17.65;44.04;99924.70;;;;-46
2021/01/20 00:10:47;;;;;;;2.83;2.60;;;;;;;17.63;44.05;99926.39;;;;-46
2021/01/20 00:13:47;;;;;;;2.77;2.53;;;;;;;17.62;44.12;99925.43;;;;-46
2021/01/20 00:16:47;;;;;;;2.69;2.49;;;;;;;17.60;44.10;99928.33;;;;-46
2021/01/20 00:19:47;;;;;;;2.78;2.58;;;;;;;17.57;44.08;99930.48;;;;-46
2021/01/20 00:22:48;;;;;;;2.91;2.60;;;;;;;17.57;44.10;99930.08;;;;-46
2021/01/20 00:25:47;;;;;;;2.75;2.54;;;;;;;17.55;44.16;99924.48;;;;-46
2021/01/20 00:28:48;;;;;;;2.97;2.68;;;;;;;17.53;44.16;99920.91;;;;-46
2021/01/20 00:31:47;;;;;;;2.85;2.56;;;;;;;17.52;44.10;99920.02;;;;-46
2021/01/20 00:34:47;;;;;;;2.86;2.66;;;;;;;17.50;44.14;99921.23;;;;-46
2021/01/20 00:37:47;;;;;;;2.97;2.66;;;;;;;17.49;44.15;99915.78;;;;-46
2021/01/20 00:40:47;;;;;;;2.95;2.65;;;;;;;17.46;44.12;99910.09;;;;-46
2021/01/20 00:43:47;;;;;;;3.00;2.69;;;;;;;17.45;44.08;99897.77;;;;-46
2021/01/20 00:46:47;;;;;;;3.13;2.83;;;;;;;17.43;44.09;99898.92;;;;-46
2021/01/20 00:49:47;;;;;;;2.97;2.67;;;;;;;17.42;44.10;99896.95;;;;-47
2021/01/20 00:52:47;;;;;;;2.99;2.71;;;;;;;17.40;44.17;99892.97;;;;-47
2021/01/20 00:55:47;;;;;;;3.21;2.67;;;;;;;17.38;44.15;99896.84;;;;-46
2021/01/20 00:58:47;;;;;;;2.91;2.61;;;;;;;17.37;44.08;99892.41;;;;-46
2021/01/20 01:01:47;;;;;;;2.73;2.53;;;;;;;17.36;44.15;99891.16;;;;-47
2021/01/20 01:04:47;;;;;;;2.84;2.60;;;;;;;17.33;44.09;99887.11;;;;-46
2021/01/20 01:07:47;;;;;;;2.92;2.67;;;;;;;17.32;44.23;99886.84;;;;-46
2021/01/20 01:10:47;;;;;;;2.73;2.53;;;;;;;17.30;44.24;99889.75;;;;-46
2021/01/20 01:13:47;;;;;;;2.94;2.64;;;;;;;17.29;44.15;99883.52;;;;-46
2021/01/20 01:16:47;;;;;;;3.07;2.60;;;;;;;17.27;44.19;99885.70;;;;-46
2021/01/20 01:19:47;;;;;;;2.94;2.59;;;;;;;17.26;44.12;99894.82;;;;-46
2021/01/20 01:22:47;;;;;;;3.06;2.76;;;;;;;17.25;44.18;99890.30;;;;-46
2021/01/20 01:25:47;;;;;;;2.59;2.39;;;;;;;17.23;44.19;99891.50;;;;-46
2021/01/20 01:28:47;;;;;;;2.71;2.51;;;;;;;17.21;44.26;99883.47;;;;-46
2021/01/20 01:31:47;;;;;;;2.82;2.57;;;;;;;17.20;44.22;99885.83;;;;-46
2021/01/20 01:34:47;;;;;;;2.83;2.46;;;;;;;17.19;44.12;99884.59;;;;-46
2021/01/20 01:37:47;;;;;;;2.85;2.56;;;;;;;17.18;44.20;99877.04;;;;-46
2021/01/20 01:40:47;;;;;;;2.89;2.60;;;;;;;17.16;44.15;99878.23;;;;-46
2021/01/20 01:43:47;;;;;;;2.91;2.50;;;;;;;17.15;44.19;99868.78;;;;-52
2021/01/20 01:46:47;;;;;;;2.75;2.53;;;;;;;17.13;44.14;99865.36;;;;-52
2021/01/20 01:49:47;;;;;;;2.62;2.42;;;;;;;17.12;44.21;99867.80;;;;-52
2021/01/20 01:52:47;;;;;;;2.75;2.46;;;;;;;17.12;44.18;99862.02;;;;-52
2021/01/20 01:55:47;;;;;;;3.00;2.70;;;;;;;17.10;44.17;99858.72;;;;-52
2021/01/20 01:58:47;;;;;;;2.54;2.34;;;;;;;17.09;44.22;99859.02;;;;-52
2021/01/20 02:01:47;;;;;;;2.69;2.47;;;;;;;17.07;44.23;99858.52;;;;-52
2021/01/20 02:04:47;;;;;;;3.03;2.73;;;;;;;17.07;44.19;99854.39;;;;-52
2021/01/20 02:07:47;;;;;;;2.92;2.62;;;;;;;17.06;44.25;99860.31;;;;-52
2021/01/20 02:10:47;;;;;;;2.95;2.62;;;;;;;17.04;44.17;99859.16;;;;-52
2021/01/20 02:13:47;;;;;;;2.70;2.50;;;;;;;17.04;44.18;99850.17;;;;-52
2021/01/20 02:16:47;;;;;;;2.88;2.59;;;;;;;17.03;44.22;99852.42;;;;-53
2021/01/20 02:19:47;;;;;;;2.61;2.41;;;;;;;17.01;44.21;99849.81;;;;-53
2021/01/20 02:22:47;;;;;;;2.76;2.56;;;;;;;17.01;44.20;99846.17;;;;-53
2021/01/20 02:25:47;;;;;;;2.77;2.54;;;;;;;16.99;44.16;99837.98;;;;-52
2021/01/20 02:28:47;;;;;;;2.90;2.60;;;;;;;16.98;44.17;99837.18;;;;-52
2021/01/20 02:31:47;;;;;;;2.69;2.49;;;;;;;16.97;44.16;99838.05;;;;-52
2021/01/20 02:34:47;;;;;;;2.63;2.43;;;;;;;16.96;44.18;99833.13;;;;-52
2021/01/20 02:37:47;;;;;;;2.78;2.51;;;;;;;16.95;44.20;99826.78;;;;-52
2021/01/20 02:40:47;;;;;;;2.77;2.43;;;;;;;16.94;44.20;99831.25;;;;-52
2021/01/20 02:43:47;;;;;;;2.64;2.44;;;;;;;16.93;44.26;99836.56;;;;-52
2021/01/20 02:46:47;;;;;;;3.06;2.53;;;;;;;16.91;44.20;99830.88;;;;-53
2021/01/20 02:49:47;;;;;;;2.73;2.44;;;;;;;16.91;44.27;99838.00;;;;-52
2021/01/20 02:52:47;;;;;;;2.73;2.47;;;;;;;16.90;44.24;99834.53;;;;-52
2021/01/20 02:55:47;;;;;;;2.60;2.40;;;;;;;16.89;44.21;99827.42;;;;-49
2021/01/20 02:58:47;;;;;;;2.67;2.41;;;;;;;16.87;44.22;99828.70;;;;-49
2021/01/20 03:01:47;;;;;;;2.75;2.53;;;;;;;16.87;44.18;99829.16;;;;-49
2021/01/20 03:04:47;;;;;;;3.18;2.57;;;;;;;16.86;44.19;99829.41;;;;-49
2021/01/20 03:07:47;;;;;;;2.55;2.35;;;;;;;16.86;44.24;99829.48;;;;-49
2021/01/20 03:10:47;;;;;;;2.66;2.46;;;;;;;16.84;44.26;99824.78;;;;-49
2021/01/20 03:13:47;;;;;;;2.73;2.45;;;;;;;16.84;44.22;99820.41;;;;-49
2021/01/20 03:16:47;;;;;;;2.68;2.48;;;;;;;16.83;44.25;99813.91;;;;-49
2021/01/20 03:19:47;;;;;;;2.63;2.43;;;;;;;16.82;44.23;99809.72;;;;-49
2021/01/20 03:22:47;;;;;;;2.90;2.41;;;;;;;16.81;44.27;99809.38;;;;-49
2021/01/20 03:25:47;;;;;;;2.95;2.64;;;;;;;16.80;44.28;99804.57;;;;-49
2021/01/20 03:28:47;;;;;;;2.83;2.47;;;;;;;16.78;44.23;99799.05;;;;-49
2021/01/20 03:31:47;;;;;;;2.65;2.45;;;;;;;16.77;44.28;99797.12;;;;-49
2021/01/20 03:34:47;;;;;;;2.80;2.60;;;;;;;16.77;44.28;99798.81;;;;-49
2021/01/20 03:37:47;;;;;;;2.99;2.45;;;;;;;16.76;44.27;99789.33;;;;-49
2021/01/20 03:40:47;;;;;;;2.79;2.58;;;;;;;16.75;44.24;99787.48;;;;-49
2021/01/20 03:43:47;;;;;;;2.49;2.29;;;;;;;16.74;44.23;99786.16;;;;-49
2021/01/20 03:46:47;;;;;;;2.70;2.50;;;;;;;16.73;44.27;99784.30;;;;-48
2021/01/20 03:49:47;;;;;;;2.61;2.41;;;;;;;16.71;44.25;99781.30;;;;-48
2021/01/20 03:52:47;;;;;;;2.44;2.20;;;;;;;16.70;44.19;99779.17;;;;-48
2021/01/20 03:55:47;;;;;;;2.71;2.51;;;;;;;16.71;44.22;99778.06;;;;-48
2021/01/20 03:58:47;;;;;;;2.59;2.39;;;;;;;16.70;44.27;99771.17;;;;-48
2021/01/20 04:01:47;;;;;;;2.60;2.40;;;;;;;16.68;44.25;99768.23;;;;-48
2021/01/20 04:04:47;;;;;;;2.77;2.57;;;;;;;16.67;44.28;99764.03;;;;-48
2021/01/20 04:07:47;;;;;;;2.55;2.32;;;;;;;16.66;44.28;99763.05;;;;-48
2021/01/20 04:10:47;;;;;;;2.69;2.49;;;;;;;16.66;44.30;99760.78;;;;-48
2021/01/20 04:13:47;;;;;;;2.60;2.40;;;;;;;16.65;44.25;99759.01;;;;-48
2021/01/20 04:16:47;;;;;;;2.81;2.43;;;;;;;16.64;44.29;99750.50;;;;-48
2021/01/20 04:19:47;;;;;;;2.65;2.45;;;;;;;16.63;44.24;99751.15;;;;-49
2021/01/20 04:22:47;;;;;;;2.96;2.49;;;;;;;16.63;44.27;99750.98;;;;-49
2021/01/20 04:25:47;;;;;;;2.59;2.39;;;;;;;16.62;44.25;99749.02;;;;-49
2021/01/20 04:28:47;;;;;;;2.55;2.35;;;;;;;16.61;44.26;99747.66;;;;-49
2021/01/20 04:31:47;;;;;;;2.43;2.23;;;;;;;16.60;44.21;99750.25;;;;-50
2021/01/20 04:34:47;;;;;;;2.47;2.27;;;;;;;16.59;44.27;99749.91;;;;-49
2021/01/20 04:37:47;;;;;;;2.34;2.14;;;;;;;16.59;44.26;99746.91;;;;-49
2021/01/20 04:40:47;;;;;;;2.58;2.36;;;;;;;16.58;44.22;99750.80;;;;-49
2021/01/20 04:43:47;;;;;;;2.53;2.27;;;;;;;16.57;44.28;99746.17;;;;-49
2021/01/20 04:46:47;;;;;;;2.66;2.35;;;;;;;16.56;44.27;99743.34;;;;-49
2021/01/20 04:49:47;;;;;;;2.49;2.29;;;;;;;16.55;44.30;99744.22;;;;-49
2021/01/20 04:52:47;;;;;;;2.58;2.38;;;;;;;16.55;44.24;99739.52;;;;-49
2021/01/20 04:55:47;;;;;;;2.56;2.36;;;;;;;16.54;44.25;99738.16;;;;-49
2021/01/20 04:58:47;;;;;;;2.53;2.33;;;;;;;16.53;44.30;99738.55;;;;-49
2021/01/20 05:01:47;;;;;;;2.55;2.35;;;;;;;16.53;44.29;99733.36;;;;-48
2021/01/20 05:04:47;;;;;;;2.51;2.31;;;;;;;16.52;44.27;99732.16;;;;-48
2021/01/20 05:07:47;;;;;;;2.50;2.30;;;;;;;16.52;44.27;99729.45;;;;-48
2021/01/20 05:10:47;;;;;;;2.51;2.31;;;;;;;16.50;44.25;99730.03;;;;-48
2021/01/20 05:13:47;;;;;;;2.39;2.19;;;;;;;16.50;44.25;99724.59;;;;-48
2021/01/20 05:16:49;;;;;;;2.30;2.10;;;;;;;16.49;44.26;99721.44;;;;-48
2021/01/20 05:19:47;;;;;;;2.40;2.20;;;;;;;16.49;44.21;99723.47;;;;-48
2021/01/20 05:22:47;;;;;;;2.32;2.12;;;;;;;16.47;44.26;99716.34;;;;-48
2021/01/20 05:25:47;;;;;;;2.49;2.29;;;;;;;16.45;44.30;99720.03;;;;-48
2021/01/20 05:28:47;;;;;;;2.51;2.31;;;;;;;16.45;44.26;99719.23;;;;-48
2021/01/20 05:31:47;;;;;;;2.81;2.55;;;;;;;16.45;44.27;99721.41;;;;-48
2021/01/20 05:34:47;;;;;;;2.67;2.45;;;;;;;16.44;44.30;99712.84;;;;-48
2021/01/20 05:37:47;;;;;;;2.52;2.31;;;;;;;16.43;44.30;99712.34;;;;-48
2021/01/20 05:40:47;;;;;;;2.87;2.40;;;;;;;16.43;44.31;99716.95;;;;-48
2021/01/20 05:43:47;;;;;;;2.54;2.34;;;;;;;16.41;44.30;99715.64;;;;-48
2021/01/20 05:46:47;;;;;;;2.48;2.28;;;;;;;16.41;44.29;99716.70;;;;-48
2021/01/20 05:49:47;;;;;;;2.32;2.11;;;;;;;16.41;44.25;99721.14;;;;-48
2021/01/20 05:52:47;;;;;;;2.39;2.19;;;;;;;16.41;44.27;99722.27;;;;-48
2021/01/20 05:55:47;;;;;;;2.52;2.32;;;;;;;16.40;44.32;99723.34;;;;-48
2021/01/20 05:58:47;;;;;;;2.58;2.38;;;;;;;16.39;44.34;99714.84;;;;-48
2021/01/20 06:01:47;;;;;;;2.49;2.27;;;;;;;16.39;44.29;99718.37;;;;-48
2021/01/20 06:04:47;;;;;;;2.40;2.20;;;;;;;16.39;44.28;99711.34;;;;-48
2021/01/20 06:07:47;;;;;;;2.57;2.37;;;;;;;16.37;44.32;99707.77;;;;-48
2021/01/20 06:10:47;;;;;;;2.40;2.20;;;;;;;16.37;44.35;99705.34;;;;-48
2021/01/20 06:13:47;;;;;;;2.34;2.14;;;;;;;16.37;44.36;99706.56;;;;-48
2021/01/20 06:16:47;;;;;;;2.60;2.40;;;;;;;16.38;44.32;99705.86;;;;-48
2021/01/20 06:19:47;;;;;;;2.44;2.24;;;;;;;16.38;44.29;99710.14;;;;-48
2021/01/20 06:22:48;;;;;;;2.51;2.31;;;;;;;16.38;44.34;99706.42;;;;-48
2021/01/20 06:25:47;;;;;;;2.43;2.23;;;;;;;16.40;44.38;99703.77;;;;-46
2021/01/20 06:28:47;;;;;;;2.45;2.25;;;;;;;16.42;44.35;99700.23;;;;-46
2021/01/20 06:31:47;;;;;;;2.28;2.07;;;;;;;16.42;44.29;99701.84;;;;-46
2021/01/20 06:34:47;;;;;;;2.46;2.24;;;;;;;16.45;44.31;99699.91;;;;-52
2021/01/20 06:37:47;;;;;;;2.49;2.29;;;;;;;16.47;44.33;99695.06;;;;-52
2021/01/20 06:40:47;;;;;;;2.52;2.32;;;;;;;16.49;44.44;99692.90;;;;-52
2021/01/20 06:43:47;;;;;;;2.43;2.23;;;;;;;16.51;44.42;99688.22;;;;-52
2021/01/20 06:46:47;;;;;;;2.23;2.03;;;;;;;16.54;44.46;99686.71;;;;-52
2021/01/20 06:49:47;;;;;;;2.29;2.09;;;;;;;16.57;44.47;99675.48;;;;-52
2021/01/20 06:52:47;;;;;;;2.10;1.95;;;;;;;16.60;44.46;99678.59;;;;-52
2021/01/20 06:55:47;;;;;;;2.41;2.21;;;;;;;16.63;44.52;99676.97;;;;-52
2021/01/20 06:58:47;;;;;;;2.43;2.23;;;;;;;16.67;44.49;99668.98;;;;-52
2021/01/20 07:01:47;;;;;;;2.40;2.20;;;;;;;16.72;44.50;99674.91;;;;-53
2021/01/20 07:04:47;;;;;;;2.79;2.14;;;;;;;16.75;44.37;99679.70;;;;-46
2021/01/20 07:07:47;;;;;;;4.75;2.70;;;;;;;16.75;43.87;99680.20;;;;-46
2021/01/20 07:10:47;;;;;;;7.46;3.25;;;;;;;16.65;42.48;99682.48;;;;-50
2021/01/20 07:13:47;;;;;;;6.93;4.89;;;;;;;16.20;41.24;99676.13;;;;-53
2021/01/20 07:16:47;;;;;;;5.94;4.85;;;;;;;15.87;41.05;99672.48;;;;-54
2021/01/20 07:19:47;;;;;;;5.72;5.20;;;;;;;15.64;41.19;99673.86;;;;-54
2021/01/20 07:22:47;;;;;;;5.89;5.28;;;;;;;15.42;41.11;99676.32;;;;-54
2021/01/20 07:25:47;;;;;;;6.79;5.35;;;;;;;15.24;41.14;99675.96;;;;-56
2021/01/20 07:28:47;;;;;;;5.99;5.35;;;;;;;15.43;41.35;99670.19;;;;-48
2021/01/20 07:31:47;;;;;;;11.33;5.45;;;;;;;15.68;41.58;99666.95;;;;-49
2021/01/20 07:34:47;;;;;;;8.37;4.76;;;;;;;15.85;42.18;99661.58;;;;-47
2021/01/20 07:37:47;;;;;;;6.31;4.53;;;;;;;15.99;42.42;99659.09;;;;-47
2021/01/20 07:40:47;;;;;;;6.05;4.21;;;;;;;16.10;42.59;99655.55;;;;-48
2021/01/20 07:43:47;;;;;;;4.43;4.01;;;;;;;16.20;42.60;99659.39;;;;-48
2021/01/20 07:46:47;;;;;;;5.47;3.77;;;;;;;16.26;42.71;99664.45;;;;-52
2021/01/20 07:49:47;;;;;;;4.31;3.83;;;;;;;16.32;42.68;99647.11;;;;-52
2021/01/20 07:52:47;;;;;;;4.69;3.79;;;;;;;16.36;42.74;99640.59;;;;-47
2021/01/20 07:55:47;;;;;;;4.74;3.77;;;;;;;16.41;42.74;99633.89;;;;-47
2021/01/20 07:58:47;;;;;;;7.30;3.75;;;;;;;16.44;42.79;99630.77;;;;-47
2021/01/20 08:01:47;;;;;;;4.63;3.68;;;;;;;16.48;42.79;99633.22;;;;-47
2021/01/20 08:04:47;;;;;;;4.57;3.58;;;;;;;16.50;42.82;99628.55;;;;-52
2021/01/20 08:07:47;;;;;;;4.89;3.51;;;;;;;16.53;42.86;99623.53;;;;-52
2021/01/20 08:10:47;;;;;;;5.46;3.52;;;;;;;16.55;42.84;99622.41;;;;-52
2021/01/20 08:13:47;;;;;;;4.25;3.65;;;;;;;16.56;42.94;99627.84;;;;-52
2021/01/20 08:16:47;;;;;;;4.07;3.37;;;;;;;16.58;42.93;99622.52;;;;-52
2021/01/20 08:19:47;;;;;;;3.77;3.23;;;;;;;16.60;42.91;99616.20;;;;-48
2021/01/20 08:22:47;;;;;;;6.19;3.65;;;;;;;16.60;43.42;99613.72;;;;-58
2021/01/20 08:25:47;;;;;;;4.57;3.58;;;;;;;16.63;43.54;99613.55;;;;-52
2021/01/20 08:28:47;;;;;;;5.33;3.36;;;;;;;16.67;43.62;99618.27;;;;-51
2021/01/20 08:31:47;;;;;;;5.05;3.80;;;;;;;16.72;43.76;99618.67;;;;-54
2021/01/20 08:34:47;;;;;;;4.35;3.16;;;;;;;16.77;43.52;99617.19;;;;-54
2021/01/20 08:37:47;;;;;;;5.13;3.42;;;;;;;16.79;43.40;99617.19;;;;-51
2021/01/20 08:40:48;;;;;;;4.40;3.27;;;;;;;16.82;43.45;99617.38;;;;-52
2021/01/20 08:43:47;;;;;;;3.73;3.20;;;;;;;16.87;43.49;99622.81;;;;-54
2021/01/20 08:46:47;;;;;;;4.09;3.30;;;;;;;16.91;43.47;99621.23;;;;-57
2021/01/20 08:49:47;;;;;;;4.33;3.04;;;;;;;16.96;43.46;99618.58;;;;-57
2021/01/20 08:52:47;;;;;;;6.10;3.24;;;;;;;16.99;43.42;99621.31;;;;-53
2021/01/20 08:55:47;;;;;;;3.49;3.14;;;;;;;17.03;43.48;99615.74;;;;-57
2021/01/20 08:58:47;;;;;;;3.77;3.03;;;;;;;17.06;43.46;99613.66;;;;-57
2021/01/20 09:01:47;;;;;;;3.03;2.75;;;;;;;17.09;43.51;99605.64;;;;-57
2021/01/20 09:04:47;;;;;;;5.09;2.85;;;;;;;17.11;43.51;99606.55;;;;-53
2021/01/20 09:07:47;;;;;;;4.25;3.03;;;;;;;17.15;43.57;99600.56;;;;-51
2021/01/20 09:10:47;;;;;;;4.74;3.09;;;;;;;17.16;43.49;99605.11;;;;-52
2021/01/20 09:13:47;;;;;;;3.62;2.88;;;;;;;17.19;43.49;99607.21;;;;-52
2021/01/20 09:16:47;;;;;;;3.05;2.75;;;;;;;17.23;43.49;99612.64;;;;-53
2021/01/20 09:19:47;;;;;;;3.32;2.83;;;;;;;17.25;43.43;99610.70;;;;-57
2021/01/20 09:22:47;;;;;;;3.63;2.82;;;;;;;17.27;43.54;99607.39;;;;-57
2021/01/20 09:25:47;;;;;;;4.01;2.69;;;;;;;17.33;43.65;99595.80;;;;-53
2021/01/20 09:28:47;;;;;;;4.68;3.09;;;;;;;17.36;43.73;99588.36;;;;-55
2021/01/20 09:31:47;;;;;;;6.09;3.19;;;;;;;17.41;44.04;99592.33;;;;-51
2021/01/20 09:34:47;;;;;;;6.40;3.19;;;;;;;17.47;44.44;99585.05;;;;-52
2021/01/20 09:37:47;;;;;;;5.52;3.12;;;;;;;17.52;44.56;99580.77;;;;-58
2021/01/20 09:40:47;;;;;;;3.98;2.93;;;;;;;17.57;44.44;99571.84;;;;-54
2021/01/20 09:43:47;;;;;;;3.80;2.81;;;;;;;17.62;44.43;99573.00;;;;-57
2021/01/20 09:46:47;;;;;;;3.07;2.61;;;;;;;17.66;44.48;99583.13;;;;-53
2021/01/20 09:49:47;;;;;;;3.82;2.71;;;;;;;17.71;44.67;99577.69;;;;-46
2021/01/20 09:52:47;;;;;;;3.33;2.76;;;;;;;17.74;44.44;99577.18;;;;-54
2021/01/20 09:55:47;;;;;;;3.92;2.75;;;;;;;17.79;44.65;99565.37;;;;-51
2021/01/20 09:58:47;;;;;;;3.19;2.57;;;;;;;17.84;44.46;99560.91;;;;-51
2021/01/20 10:01:47;;;;;;;3.60;2.71;;;;;;;17.87;44.60;99551.20;;;;-48
2021/01/20 10:04:47;;;;;;;3.45;2.81;;;;;;;17.91;44.59;99549.73;;;;-48
2021/01/20 10:07:47;;;;;;;5.99;2.80;;;;;;;17.94;44.53;99548.18;;;;-51
2021/01/20 10:10:47;;;;;;;2.99;2.59;;;;;;;17.97;44.68;99553.78;;;;-57
2021/01/20 10:13:47;;;;;;;2.91;2.61;;;;;;;18.02;44.26;99554.16;;;;-57
2021/01/20 10:16:47;;;;;;;2.65;2.45;;;;;;;18.06;44.70;99550.84;;;;-59
2021/01/20 10:19:47;;;;;;;2.97;2.55;;;;;;;18.07;44.20;99547.20;;;;-54
2021/01/20 10:22:47;;;;;;;3.27;2.51;;;;;;;18.10;44.02;99545.72;;;;-50
2021/01/20 10:25:47;;;;;;;2.61;2.41;;;;;;;18.12;44.25;99535.58;;;;-56
2021/01/20 10:28:47;;;;;;;3.58;2.49;;;;;;;18.15;44.34;99531.98;;;;-52
2021/01/20 10:31:47;;;;;;;3.57;2.58;;;;;;;18.18;44.79;99533.53;;;;-51
2021/01/20 10:34:47;;;;;;;2.97;2.52;;;;;;;18.21;44.55;99525.00;;;;-53
2021/01/20 10:37:47;;;;;;;2.70;2.50;;;;;;;18.24;44.37;99513.31;;;;-49
2021/01/20 10:40:47;;;;;;;2.43;2.23;;;;;;;18.26;44.31;99507.46;;;;-51
2021/01/20 10:43:47;;;;;;;2.76;2.50;;;;;;;18.29;44.45;99504.70;;;;-60
2021/01/20 10:46:47;;;;;;;2.61;2.35;;;;;;;18.31;44.29;99491.55;;;;-55
2021/01/20 10:49:47;;;;;;;2.52;2.32;;;;;;;18.34;44.51;99485.55;;;;-52
2021/01/20 10:52:47;;;;;;;2.92;2.47;;;;;;;18.37;44.50;99477.82;;;;-50
2021/01/20 10:55:47;;;;;;;2.58;2.37;;;;;;;18.40;44.48;99474.14;;;;-59
2021/01/20 10:58:47;;;;;;;2.64;2.23;;;;;;;18.45;44.40;99460.75;;;;-49
2021/01/20 11:01:47;;;;;;;2.99;2.39;;;;;;;18.44;43.99;99461.70;;;;-51
2021/01/20 11:04:47;;;;;;;3.00;2.35;;;;;;;18.44;43.85;99458.79;;;;-51
2021/01/20 11:07:47;;;;;;;3.01;2.31;;;;;;;18.44;43.92;99455.14;;;;-59
2021/01/20 11:10:47;;;;;;;2.51;2.31;;;;;;;18.44;43.99;99446.95;;;;-59
2021/01/20 11:13:47;;;;;;;3.53;2.11;;;;;;;18.48;44.01;99435.66;;;;-58
2021/01/20 11:16:47;;;;;;;2.54;2.26;;;;;;;18.49;44.16;99426.25;;;;-55
2021/01/20 11:19:47;;;;;;;3.10;2.29;;;;;;;18.52;44.20;99428.75;;;;-53
2021/01/20 11:22:47;;;;;;;2.91;2.17;;;;;;;18.57;44.21;99426.10;;;;-52
2021/01/20 11:25:47;;;;;;;4.76;2.42;;;;;;;18.55;43.87;99425.16;;;;-58
2021/01/20 11:28:47;;;;;;;3.09;2.35;;;;;;;18.54;43.66;99421.82;;;;-52
2021/01/20 11:31:47;;;;;;;2.43;2.23;;;;;;;18.54;43.78;99412.02;;;;-52
2021/01/20 11:34:47;;;;;;;3.71;2.26;;;;;;;18.55;43.72;99413.38;;;;-59
2021/01/20 11:37:47;;;;;;;2.84;2.19;;;;;;;18.55;43.51;99413.05;;;;-53
2021/01/20 11:40:47;;;;;;;2.77;2.07;;;;;;;18.56;43.63;99406.73;;;;-53
2021/01/20 11:43:47;;;;;;;2.67;2.15;;;;;;;18.56;43.46;99394.40;;;;-59
2021/01/20 11:46:47;;;;;;;2.25;2.05;;;;;;;18.56;43.55;99390.25;;;;-59
2021/01/20 11:49:47;;;;;;;2.41;2.20;;;;;;;18.56;43.49;99387.33;;;;-52
2021/01/20 11:52:47;;;;;;;2.28;2.08;;;;;;;18.57;43.46;99378.42;;;;-60
2021/01/20 11:55:47;;;;;;;2.25;1.93;;;;;;;18.57;43.54;99372.48;;;;-59
2021/01/20 11:58:47;;;;;;;2.29;2.05;;;;;;;18.59;43.46;99368.81;;;;-60
2021/01/20 12:01:46;;;;;;;2.17;1.97;;;;;;;18.59;43.30;99363.15;;;;-52
2021/01/20 12:04:47;;;;;;;2.46;2.07;;;;;;;18.59;43.35;99363.94;;;;-51
2021/01/20 12:07:47;;;;;;;3.13;2.07;;;;;;;18.60;43.43;99354.13;;;;-52
2021/01/20 12:10:47;;;;;;;2.20;2.00;;;;;;;18.62;43.40;99343.72;;;;-59
2021/01/20 12:13:47;;;;;;;2.34;2.09;;;;;;;18.63;43.36;99334.38;;;;-58
2021/01/20 12:16:47;;;;;;;2.38;2.05;;;;;;;18.63;43.40;99322.68;;;;-58
2021/01/20 12:19:47;;;;;;;2.39;2.03;;;;;;;18.64;43.40;99321.80;;;;-52
2021/01/20 12:22:47;;;;;;;2.21;2.01;;;;;;;18.66;43.29;99320.33;;;;-52
2021/01/20 12:25:47;;;;;;;2.25;2.05;;;;;;;18.66;43.25;99317.64;;;;-52
2021/01/20 12:28:47;;;;;;;2.59;2.09;;;;;;;18.67;43.24;99303.67;;;;-52
2021/01/20 12:31:47;;;;;;;2.33;2.13;;;;;;;18.68;43.30;99296.38;;;;-52
2021/01/20 12:34:47;;;;;;;2.20;2.00;;;;;;;18.69;43.20;99295.61;;;;-52
2021/01/20 12:37:47;;;;;;;2.24;1.98;;;;;;;18.75;43.53;99295.89;;;;-50
2021/01/20 12:40:47;;;;;;;3.33;1.93;;;;;;;18.77;43.38;99288.50;;;;-51
2021/01/20 12:43:47;;;;;;;3.26;2.11;;;;;;;18.81;43.72;99283.94;;;;-57
2021/01/20 12:46:47;;;;;;;4.71;2.08;;;;;;;18.84;43.74;99276.77;;;;-53
2021/01/20 12:49:47;;;;;;;3.37;2.13;;;;;;;18.88;43.97;99270.78;;;;-59
2021/01/20 12:52:47;;;;;;;5.62;1.90;;;;;;;18.90;43.97;99269.55;;;;-58
2021/01/20 12:55:47;;;;;;;2.01;1.81;;;;;;;18.92;44.03;99261.26;;;;-58
2021/01/20 12:58:47;;;;;;;3.32;1.92;;;;;;;18.94;43.97;99264.88;;;;-61
2021/01/20 13:01:47;;;;;;;2.19;1.99;;;;;;;18.96;44.04;99255.52;;;;-64
2021/01/20 13:04:47;;;;;;;4.69;2.00;;;;;;;18.96;43.95;99256.73;;;;-50
2021/01/20 13:07:47;;;;;;;3.14;2.05;;;;;;;19.02;44.61;99256.28;;;;-53
2021/01/20 13:10:47;;;;;;;3.66;2.11;;;;;;;19.04;44.62;99252.02;;;;-54
2021/01/20 13:13:47;;;;;;;3.16;1.81;;;;;;;19.03;44.38;99253.44;;;;-52
2021/01/20 13:16:47;;;;;;;2.17;1.89;;;;;;;19.03;44.26;99247.02;;;;-52
2021/01/20 13:19:47;;;;;;;2.39;1.87;;;;;;;19.04;44.36;99245.36;;;;-52
2021/01/20 13:22:46;;;;;;;2.26;2.00;;;;;;;19.05;43.80;99233.27;;;;-52
2021/01/20 13:25:47;;;;;;;2.76;2.00;;;;;;;19.02;43.56;99230.39;;;;-53
2021/01/20 13:28:47;;;;;;;3.07;1.99;;;;;;;18.99;43.64;99227.27;;;;-52
2021/01/20 13:31:49;;;;;;;3.09;2.00;;;;;;;18.99;43.58;99216.95;;;;-53
2021/01/20 13:34:47;;;;;;;3.58;1.90;;;;;;;18.99;43.63;99214.59;;;;-53
2021/01/20 13:37:47;;;;;;;2.11;1.92;;;;;;;18.98;43.40;99215.23;;;;-50
2021/01/20 13:40:47;;;;;;;1.98;1.73;;;;;;;18.99;43.39;99214.42;;;;-50
2021/01/20 13:43:47;;;;;;;2.39;1.99;;;;;;;19.00;43.40;99207.03;;;;-50
2021/01/20 13:46:47;;;;;;;2.10;1.88;;;;;;;19.00;43.35;99202.07;;;;-50
2021/01/20 13:49:47;;;;;;;2.39;1.99;;;;;;;19.00;43.36;99198.25;;;;-50
2021/01/20 13:52:47;;;;;;;2.65;1.99;;;;;;;19.00;43.26;99191.02;;;;-52
2021/01/20 13:55:46;;;;;;;4.13;2.21;;;;;;;19.00;42.69;99187.20;;;;-53
2021/01/20 13:58:54;;;;;;;2.71;2.01;;;;;;;18.98;42.62;99184.71;;;;-47
2021/01/20 14:01:47;;;;;;;2.58;2.30;;;;;;;18.97;42.57;99177.61;;;;-50
2021/01/20 14:04:47;;;;;;;2.55;2.29;;;;;;;18.96;41.98;99172.25;;;;-53
2021/01/20 14:07:47;;;;;;;2.55;2.11;;;;;;;18.95;42.08;99175.59;;;;-54
2021/01/20 14:10:46;;;;;;;3.90;2.61;;;;;;;18.95;42.07;99172.19;;;;-54
2021/01/20 14:13:47;;;;;;;3.12;2.15;;;;;;;18.94;42.34;99169.08;;;;-52
2021/01/20 14:16:47;;;;;;;2.94;2.34;;;;;;;18.94;42.60;99169.08;;;;-53
2021/01/20 14:19:47;;;;;;;3.88;2.29;;;;;;;18.94;42.26;99169.82;;;;-57
2021/01/20 14:22:47;;;;;;;3.21;2.15;;;;;;;18.93;42.69;99168.63;;;;-52
2021/01/20 14:25:47;;;;;;;2.67;2.19;;;;;;;18.94;42.62;99169.58;;;;-54
2021/01/20 14:28:47;;;;;;;3.93;2.33;;;;;;;18.93;42.24;99168.14;;;;-52
2021/01/20 14:31:47;;;;;;;2.90;2.30;;;;;;;18.96;42.62;99169.48;;;;-51
2021/01/20 14:34:46;;;;;;;4.44;2.31;;;;;;;18.95;42.50;99166.25;;;;-51
2021/01/20 14:37:47;;;;;;;4.85;2.07;;;;;;;18.97;42.65;99163.88;;;;-52
2021/01/20 14:40:47;;;;;;;2.25;1.99;;;;;;;18.98;42.58;99159.07;;;;-51
2021/01/20 14:43:46;;;;;;;2.32;1.93;;;;;;;18.98;42.63;99150.21;;;;-58
2021/01/20 14:46:47;;;;;;;2.23;2.03;;;;;;;18.99;42.75;99139.50;;;;-58
2021/01/20 14:49:47;;;;;;;2.55;2.13;;;;;;;19.01;42.77;99142.16;;;;-58
2021/01/20 14:52:47;;;;;;;2.01;1.80;;;;;;;19.01;42.79;99134.11;;;;-57
2021/01/20 14:55:47;;;;;;;2.21;2.01;;;;;;;19.01;42.69;99132.42;;;;-58
2021/01/20 14:58:47;;;;;;;2.83;1.90;;;;;;;19.01;42.72;99137.36;;;;-58
2021/01/20 15:01:46;;;;;;;2.37;2.00;;;;;;;19.02;42.81;99137.67;;;;-58
2021/01/20 15:04:47;;;;;;;2.14;1.88;;;;;;;19.01;42.71;99139.06;;;;-58
2021/01/20 15:07:46;;;;;;;2.20;2.00;;;;;;;19.02;42.93;99135.31;;;;-58
2021/01/20 15:10:47;;;;;;;2.17;1.97;;;;;;;19.03;42.85;99138.63;;;;-54
2021/01/20 15:13:47;;;;;;;2.22;2.02;;;;;;;19.03;42.75;99135.31;;;;-58
2021/01/20 15:16:46;;;;;;;2.55;2.00;;;;;;;19.04;42.79;99138.38;;;;-58
2021/01/20 15:19:47;;;;;;;4.94;2.08;;;;;;;19.04;43.03;99129.69;;;;-55
2021/01/20 15:22:47;;;;;;;2.39;2.08;;;;;;;19.03;42.72;99128.98;;;;-58
2021/01/20 15:25:47;;;;;;;3.28;2.03;;;;;;;19.02;42.40;99123.22;;;;-60
2021/01/20 15:28:47;;;;;;;2.27;2.07;;;;;;;19.02;42.99;99123.44;;;;-59
2021/01/20 15:31:46;;;;;;;3.11;2.29;;;;;;;19.03;43.04;99125.97;;;;-60
2021/01/20 15:34:47;;;;;;;3.09;2.29;;;;;;;19.02;42.76;99119.23;;;;-57
2021/01/20 15:37:47;;;;;;;2.87;2.10;;;;;;;19.03;42.69;99118.34;;;;-58
2021/01/20 15:40:47;;;;;;;3.57;2.21;;;;;;;19.04;42.75;99113.85;;;;-60
2021/01/20 15:43:47;;;;;;;2.64;2.05;;;;;;;19.04;42.97;99112.80;;;;-59
2021/01/20 15:46:47;;;;;;;2.91;2.19;;;;;;;19.05;42.62;99116.42;;;;-53
2021/01/20 15:49:46;;;;;;;2.73;2.15;;;;;;;19.08;42.79;99118.34;;;;-54
2021/01/20 15:52:47;;;;;;;4.57;2.24;;;;;;;19.11;43.02;99123.02;;;;-58
2021/01/20 15:55:46;;;;;;;5.73;2.24;;;;;;;19.13;42.91;99115.60;;;;-55
2021/01/20 15:58:47;;;;;;;2.63;2.26;;;;;;;19.17;43.28;99119.59;;;;-56
2021/01/20 16:01:47;;;;;;;3.49;2.23;;;;;;;19.19;43.19;99116.64;;;;-63
2021/01/20 16:04:46;;;;;;;3.87;2.13;;;;;;;19.22;43.17;99120.77;;;;-45
2021/01/20 16:07:48;;;;;;;3.95;2.10;;;;;;;19.24;43.49;99119.51;;;;-46
2021/01/20 16:10:47;;;;;;;2.57;1.91;;;;;;;19.26;43.54;99120.45;;;;-53
2021/01/20 16:13:47;;;;;;;3.54;2.12;;;;;;;19.30;43.54;99122.99;;;;-51
2021/01/20 16:16:47;;;;;;;2.13;1.93;;;;;;;19.32;43.53;99117.05;;;;-53
2021/01/20 16:19:46;;;;;;;2.89;1.80;;;;;;;19.35;43.58;99118.13;;;;-52
2021/01/20 16:22:48;;;;;;;2.81;1.94;;;;;;;19.37;43.45;99120.04;;;;-51
2021/01/20 16:25:47;;;;;;;2.69;2.00;;;;;;;19.39;43.78;99118.22;;;;-54
2021/01/20 16:28:46;;;;;;;2.73;1.91;;;;;;;19.40;43.68;99118.38;;;;-51
2021/01/20 16:31:47;;;;;;;3.04;2.00;;;;;;;19.43;43.71;99119.16;;;;-52
2021/01/20 16:34:47;;;;;;;2.60;2.07;;;;;;;19.44;43.73;99120.60;;;;-56
2021/01/20 16:37:47;;;;;;;2.11;1.91;;;;;;;19.47;43.96;99113.89;;;;-55
2021/01/20 16:40:47;;;;;;;4.43;2.07;;;;;;;19.44;42.87;99111.56;;;;-54
2021/01/20 16:43:46;;;;;;;3.74;2.05;;;;;;;19.46;43.55;99112.68;;;;-51
2021/01/20 16:46:47;;;;;;;2.95;2.12;;;;;;;19.45;43.49;99107.08;;;;-51
2021/01/20 16:49:47;;;;;;;4.55;2.15;;;;;;;19.45;43.29;99108.56;;;;-60
2021/01/20 16:52:46;;;;;;;2.69;1.99;;;;;;;19.47;43.97;99106.51;;;;-51
2021/01/20 16:55:47;;;;;;;2.59;1.89;;;;;;;19.47;43.78;99094.64;;;;-56